Pagrindinis puslapis
METAR-TAF:

METAR-TAF

Oro uostai :

Diego Garsija, Indijos Vandenyno Britų Sritis

platuma: 07-18S, ilguma: 072-24E, Aukštis: 1 m

Dabartinis oras

Ataskaita buvo paskelbta 28 minutes, ne 23:55 UTC
Vėjas 3 kt nuo kintamojo kryptimis
Temperatūra 28°C
Drėgmė 89%
Slėgis 1009 hPa
Matomumas 10 km arba daugiau
Mažai debesys ne aukštis 2300 ft
Mažai debesys ne aukštis 25000 ft
migla

METAR: FJDG 242355Z VRB03KT 9999 HZ FEW023 FEW250 28/26 A2980 RMK SLP088 8/101 T02800260 10284 20279 55000

Laikas: 06:23 (00:23 UTC)

Prognozė

Ataskaita buvo paskelbta 7 valandos ir 23 minutes, ne 17:00 UTC
Prognozė galioja nuo 24 metu 17 UTC su 25 metu 23 UTC
Vėjas 6 kt nuo kintamojo kryptimis
Matomumas: 2501 m
Išsisklaidę debesys ne aukštis 2000 ft
Su prošvaistėmis ne aukštis 25000 ft

TAF: FJDG 241700Z 2417/2523 VRB06KT 9999 SCT020 BKN250 QNH2977INS TX33/2508Z TN28/2422Z AUTO FCST LIMITED METWATCH 2417 TIL 2501

Orai ataskaitas ir orų prognozės (METAR, TAF).

turimą stotys yra geltonos ir raudonos taškus žemėlapyje.

Perkelti pele per norėdami pamatyti stoties vardą.

Tada spustelėkite, norėdami matyti oro stebėjimo ir prognozės.

Norėdami pakeisti žemėlapį: spustelėkite ant žalios mygtukų su juodo kryžiaus žemyn,; žalią mygtuką su brūkšneliu, jei norite nutolinti; arba žalių rodyklių gretimoms žemėlapius.


METAR-TAF: